sensor_id;sensor_type;location;lat;lon;timestamp;P1;durP1;ratioP1;P2;durP2;ratioP2
14554;SDS011;7364;50.870;4.722;2022-07-29T00:01:47;5.10;;;2.30;;
14554;SDS011;7364;50.870;4.722;2022-07-29T00:04:14;4.47;;;2.03;;
14554;SDS011;7364;50.870;4.722;2022-07-29T00:06:42;4.83;;;2.10;;
14554;SDS011;7364;50.870;4.722;2022-07-29T00:09:09;8.03;;;2.20;;
14554;SDS011;7364;50.870;4.722;2022-07-29T00:11:36;7.93;;;2.20;;
14554;SDS011;7364;50.870;4.722;2022-07-29T00:14:04;4.37;;;2.23;;
14554;SDS011;7364;50.870;4.722;2022-07-29T00:16:31;9.27;;;2.30;;
14554;SDS011;7364;50.870;4.722;2022-07-29T00:19:02;6.57;;;2.40;;
14554;SDS011;7364;50.870;4.722;2022-07-29T00:21:29;8.13;;;3.07;;
14554;SDS011;7364;50.870;4.722;2022-07-29T00:23:57;5.47;;;2.27;;
14554;SDS011;7364;50.870;4.722;2022-07-29T00:26:24;4.47;;;1.93;;
14554;SDS011;7364;50.870;4.722;2022-07-29T00:28:52;7.53;;;2.10;;
14554;SDS011;7364;50.870;4.722;2022-07-29T00:31:20;5.20;;;2.00;;
14554;SDS011;7364;50.870;4.722;2022-07-29T00:33:47;6.33;;;2.33;;
14554;SDS011;7364;50.870;4.722;2022-07-29T00:36:15;5.43;;;2.13;;
14554;SDS011;7364;50.870;4.722;2022-07-29T00:38:42;5.73;;;2.23;;
14554;SDS011;7364;50.870;4.722;2022-07-29T00:41:13;7.90;;;2.67;;
14554;SDS011;7364;50.870;4.722;2022-07-29T00:43:40;7.30;;;2.23;;
14554;SDS011;7364;50.870;4.722;2022-07-29T00:46:07;4.40;;;2.50;;
14554;SDS011;7364;50.870;4.722;2022-07-29T00:48:35;5.27;;;3.10;;
14554;SDS011;7364;50.870;4.722;2022-07-29T00:51:05;4.17;;;2.50;;
14554;SDS011;7364;50.870;4.722;2022-07-29T00:53:36;5.00;;;2.40;;
14554;SDS011;7364;50.870;4.722;2022-07-29T00:56:04;5.33;;;2.63;;
14554;SDS011;7364;50.870;4.722;2022-07-29T00:58:31;5.47;;;2.57;;
14554;SDS011;7364;50.870;4.722;2022-07-29T01:00:59;6.17;;;2.80;;
14554;SDS011;7364;50.870;4.722;2022-07-29T01:03:26;5.67;;;2.80;;
14554;SDS011;7364;50.870;4.722;2022-07-29T01:05:54;6.93;;;2.90;;
14554;SDS011;7364;50.870;4.722;2022-07-29T01:08:21;4.30;;;2.80;;
14554;SDS011;7364;50.870;4.722;2022-07-29T01:10:51;5.60;;;2.83;;
14554;SDS011;7364;50.870;4.722;2022-07-29T01:13:19;5.03;;;2.63;;
14554;SDS011;7364;50.870;4.722;2022-07-29T01:15:48;7.97;;;3.00;;
14554;SDS011;7364;50.870;4.722;2022-07-29T01:18:20;7.20;;;2.70;;
14554;SDS011;7364;50.870;4.722;2022-07-29T01:24:05;5.40;;;2.70;;
14554;SDS011;7364;50.870;4.722;2022-07-29T01:26:46;4.13;;;2.43;;
14554;SDS011;7364;50.870;4.722;2022-07-29T01:29:23;5.07;;;2.50;;
14554;SDS011;7364;50.870;4.722;2022-07-29T01:31:55;6.73;;;2.63;;
14554;SDS011;7364;50.870;4.722;2022-07-29T01:34:29;4.83;;;2.73;;
14554;SDS011;7364;50.870;4.722;2022-07-29T01:37:03;5.83;;;2.47;;
14554;SDS011;7364;50.870;4.722;2022-07-29T01:39:39;6.67;;;2.80;;
14554;SDS011;7364;50.870;4.722;2022-07-29T01:42:23;4.70;;;2.67;;
14554;SDS011;7364;50.870;4.722;2022-07-29T01:44:55;6.97;;;2.87;;
14554;SDS011;7364;50.870;4.722;2022-07-29T01:47:26;7.97;;;2.80;;
14554;SDS011;7364;50.870;4.722;2022-07-29T01:50:01;4.33;;;2.50;;
14554;SDS011;7364;50.870;4.722;2022-07-29T01:52:34;9.10;;;3.20;;
14554;SDS011;7364;50.870;4.722;2022-07-29T01:55:07;5.47;;;2.43;;
14554;SDS011;7364;50.870;4.722;2022-07-29T01:57:39;7.50;;;2.80;;
14554;SDS011;7364;50.870;4.722;2022-07-29T02:00:15;7.30;;;2.70;;
14554;SDS011;7364;50.870;4.722;2022-07-29T02:02:45;6.50;;;2.80;;
14554;SDS011;7364;50.870;4.722;2022-07-29T02:05:15;5.10;;;2.77;;
14554;SDS011;7364;50.870;4.722;2022-07-29T02:07:48;5.10;;;3.03;;
14554;SDS011;7364;50.870;4.722;2022-07-29T02:10:17;5.27;;;2.60;;
14554;SDS011;7364;50.870;4.722;2022-07-29T02:12:47;3.97;;;2.50;;
14554;SDS011;7364;50.870;4.722;2022-07-29T02:15:17;7.43;;;2.77;;
14554;SDS011;7364;50.870;4.722;2022-07-29T02:17:46;4.37;;;2.63;;
14554;SDS011;7364;50.870;4.722;2022-07-29T02:20:21;4.50;;;2.17;;
14554;SDS011;7364;50.870;4.722;2022-07-29T02:22:51;4.30;;;2.87;;
14554;SDS011;7364;50.870;4.722;2022-07-29T02:25:20;5.40;;;2.60;;
14554;SDS011;7364;50.870;4.722;2022-07-29T02:27:50;5.40;;;2.70;;
14554;SDS011;7364;50.870;4.722;2022-07-29T02:30:19;3.70;;;2.77;;
14554;SDS011;7364;50.870;4.722;2022-07-29T02:32:50;3.40;;;2.37;;
14554;SDS011;7364;50.870;4.722;2022-07-29T02:35:18;5.57;;;2.50;;
14554;SDS011;7364;50.870;4.722;2022-07-29T02:37:47;5.83;;;3.03;;
14554;SDS011;7364;50.870;4.722;2022-07-29T02:40:37;4.67;;;2.90;;
14554;SDS011;7364;50.870;4.722;2022-07-29T02:43:06;5.10;;;2.87;;
14554;SDS011;7364;50.870;4.722;2022-07-29T02:45:37;6.07;;;3.03;;
14554;SDS011;7364;50.870;4.722;2022-07-29T02:48:06;6.97;;;3.53;;
14554;SDS011;7364;50.870;4.722;2022-07-29T02:50:41;8.83;;;3.10;;
14554;SDS011;7364;50.870;4.722;2022-07-29T02:53:16;6.63;;;3.20;;
14554;SDS011;7364;50.870;4.722;2022-07-29T02:55:48;5.60;;;2.90;;
14554;SDS011;7364;50.870;4.722;2022-07-29T02:58:24;4.67;;;2.80;;
14554;SDS011;7364;50.870;4.722;2022-07-29T03:00:56;5.93;;;2.93;;
14554;SDS011;7364;50.870;4.722;2022-07-29T03:03:25;6.50;;;3.03;;
14554;SDS011;7364;50.870;4.722;2022-07-29T03:05:56;4.47;;;2.93;;
14554;SDS011;7364;50.870;4.722;2022-07-29T03:08:26;5.50;;;3.40;;
14554;SDS011;7364;50.870;4.722;2022-07-29T03:10:54;6.90;;;3.80;;
14554;SDS011;7364;50.870;4.722;2022-07-29T03:13:22;7.47;;;2.97;;
14554;SDS011;7364;50.870;4.722;2022-07-29T03:15:51;10.80;;;3.77;;
14554;SDS011;7364;50.870;4.722;2022-07-29T03:18:21;6.60;;;3.07;;
14554;SDS011;7364;50.870;4.722;2022-07-29T03:20:49;9.30;;;3.67;;
14554;SDS011;7364;50.870;4.722;2022-07-29T03:23:18;6.97;;;3.37;;
14554;SDS011;7364;50.870;4.722;2022-07-29T03:25:46;7.20;;;3.50;;
14554;SDS011;7364;50.870;4.722;2022-07-29T03:28:14;7.77;;;3.43;;
14554;SDS011;7364;50.870;4.722;2022-07-29T03:30:41;8.00;;;3.10;;
14554;SDS011;7364;50.870;4.722;2022-07-29T03:33:08;6.97;;;3.33;;
14554;SDS011;7364;50.870;4.722;2022-07-29T03:35:37;6.40;;;3.40;;
14554;SDS011;7364;50.870;4.722;2022-07-29T03:38:04;7.00;;;3.20;;
14554;SDS011;7364;50.870;4.722;2022-07-29T03:40:32;9.40;;;3.67;;
14554;SDS011;7364;50.870;4.722;2022-07-29T03:43:04;7.43;;;3.27;;
14554;SDS011;7364;50.870;4.722;2022-07-29T03:45:37;5.67;;;3.30;;
14554;SDS011;7364;50.870;4.722;2022-07-29T03:48:09;6.70;;;3.07;;
14554;SDS011;7364;50.870;4.722;2022-07-29T03:50:40;5.97;;;3.00;;
14554;SDS011;7364;50.870;4.722;2022-07-29T03:53:08;6.27;;;3.03;;
14554;SDS011;7364;50.870;4.722;2022-07-29T03:55:37;6.00;;;3.33;;
14554;SDS011;7364;50.870;4.722;2022-07-29T03:58:18;6.37;;;3.47;;
14554;SDS011;7364;50.870;4.722;2022-07-29T04:00:46;4.40;;;3.37;;
14554;SDS011;7364;50.870;4.722;2022-07-29T04:03:14;5.07;;;3.00;;
14554;SDS011;7364;50.870;4.722;2022-07-29T04:06:07;4.87;;;3.30;;
14554;SDS011;7364;50.870;4.722;2022-07-29T04:08:35;6.17;;;3.20;;
14554;SDS011;7364;50.870;4.722;2022-07-29T04:11:02;4.97;;;2.90;;
14554;SDS011;7364;50.870;4.722;2022-07-29T04:13:30;6.70;;;4.20;;
14554;SDS011;7364;50.870;4.722;2022-07-29T04:15:58;4.33;;;2.90;;
14554;SDS011;7364;50.870;4.722;2022-07-29T04:18:26;6.40;;;3.13;;
14554;SDS011;7364;50.870;4.722;2022-07-29T04:20:53;5.30;;;3.10;;
14554;SDS011;7364;50.870;4.722;2022-07-29T04:23:27;6.90;;;3.30;;
14554;SDS011;7364;50.870;4.722;2022-07-29T04:25:57;5.97;;;3.10;;
14554;SDS011;7364;50.870;4.722;2022-07-29T04:28:26;5.67;;;3.40;;
14554;SDS011;7364;50.870;4.722;2022-07-29T04:30:53;4.07;;;2.93;;
14554;SDS011;7364;50.870;4.722;2022-07-29T04:33:20;6.97;;;3.37;;
14554;SDS011;7364;50.870;4.722;2022-07-29T04:35:47;4.07;;;3.03;;
14554;SDS011;7364;50.870;4.722;2022-07-29T04:38:15;8.97;;;3.07;;
14554;SDS011;7364;50.870;4.722;2022-07-29T04:40:43;6.40;;;3.07;;
14554;SDS011;7364;50.870;4.722;2022-07-29T04:43:10;8.17;;;3.53;;
14554;SDS011;7364;50.870;4.722;2022-07-29T04:45:38;10.73;;;3.67;;
14554;SDS011;7364;50.870;4.722;2022-07-29T04:48:05;7.93;;;3.10;;
14554;SDS011;7364;50.870;4.722;2022-07-29T04:50:33;6.00;;;3.70;;
14554;SDS011;7364;50.870;4.722;2022-07-29T04:53:00;6.87;;;3.43;;
14554;SDS011;7364;50.870;4.722;2022-07-29T04:55:27;5.00;;;3.47;;
14554;SDS011;7364;50.870;4.722;2022-07-29T04:57:56;7.40;;;3.70;;
14554;SDS011;7364;50.870;4.722;2022-07-29T05:00:24;5.63;;;3.57;;
14554;SDS011;7364;50.870;4.722;2022-07-29T05:02:51;8.17;;;4.27;;
14554;SDS011;7364;50.870;4.722;2022-07-29T05:05:18;7.07;;;4.13;;
14554;SDS011;7364;50.870;4.722;2022-07-29T05:07:45;5.77;;;3.67;;
14554;SDS011;7364;50.870;4.722;2022-07-29T05:10:13;5.37;;;3.87;;
14554;SDS011;7364;50.870;4.722;2022-07-29T05:12:40;8.33;;;4.23;;
14554;SDS011;7364;50.870;4.722;2022-07-29T05:15:09;5.23;;;4.00;;
14554;SDS011;7364;50.870;4.722;2022-07-29T05:17:37;4.57;;;3.40;;
14554;SDS011;7364;50.870;4.722;2022-07-29T05:20:04;6.03;;;3.93;;
14554;SDS011;7364;50.870;4.722;2022-07-29T05:22:32;8.87;;;4.20;;
14554;SDS011;7364;50.870;4.722;2022-07-29T05:25:02;8.83;;;4.13;;
14554;SDS011;7364;50.870;4.722;2022-07-29T05:27:29;6.77;;;4.50;;
14554;SDS011;7364;50.870;4.722;2022-07-29T05:29:56;6.33;;;4.50;;
14554;SDS011;7364;50.870;4.722;2022-07-29T05:32:25;5.87;;;3.83;;
14554;SDS011;7364;50.870;4.722;2022-07-29T05:34:52;8.33;;;4.37;;
14554;SDS011;7364;50.870;4.722;2022-07-29T05:37:20;5.33;;;4.20;;
14554;SDS011;7364;50.870;4.722;2022-07-29T05:39:47;5.93;;;4.13;;
14554;SDS011;7364;50.870;4.722;2022-07-29T05:42:14;9.20;;;3.80;;
14554;SDS011;7364;50.870;4.722;2022-07-29T05:44:42;5.07;;;3.67;;
14554;SDS011;7364;50.870;4.722;2022-07-29T05:47:13;5.63;;;4.30;;
14554;SDS011;7364;50.870;4.722;2022-07-29T05:49:42;7.53;;;4.43;;
14554;SDS011;7364;50.870;4.722;2022-07-29T05:52:09;6.67;;;4.47;;
14554;SDS011;7364;50.870;4.722;2022-07-29T05:54:38;6.80;;;4.23;;
14554;SDS011;7364;50.870;4.722;2022-07-29T05:57:05;6.43;;;4.30;;
14554;SDS011;7364;50.870;4.722;2022-07-29T05:59:35;6.67;;;4.30;;
14554;SDS011;7364;50.870;4.722;2022-07-29T06:02:03;7.43;;;4.43;;
14554;SDS011;7364;50.870;4.722;2022-07-29T06:04:30;7.03;;;4.60;;
14554;SDS011;7364;50.870;4.722;2022-07-29T06:06:59;7.73;;;5.00;;
14554;SDS011;7364;50.870;4.722;2022-07-29T06:09:26;9.63;;;4.47;;
14554;SDS011;7364;50.870;4.722;2022-07-29T06:11:54;7.10;;;4.77;;
14554;SDS011;7364;50.870;4.722;2022-07-29T06:14:23;6.60;;;4.50;;
14554;SDS011;7364;50.870;4.722;2022-07-29T06:16:50;6.57;;;4.00;;
14554;SDS011;7364;50.870;4.722;2022-07-29T06:19:18;6.53;;;4.70;;
14554;SDS011;7364;50.870;4.722;2022-07-29T06:21:45;7.07;;;4.70;;
14554;SDS011;7364;50.870;4.722;2022-07-29T06:24:14;9.77;;;5.30;;
14554;SDS011;7364;50.870;4.722;2022-07-29T06:26:45;8.13;;;4.60;;
14554;SDS011;7364;50.870;4.722;2022-07-29T06:29:12;8.97;;;4.50;;
14554;SDS011;7364;50.870;4.722;2022-07-29T06:31:39;6.60;;;4.53;;
14554;SDS011;7364;50.870;4.722;2022-07-29T06:34:07;6.40;;;4.97;;
14554;SDS011;7364;50.870;4.722;2022-07-29T06:36:34;8.97;;;5.53;;
14554;SDS011;7364;50.870;4.722;2022-07-29T06:39:03;6.57;;;4.70;;
14554;SDS011;7364;50.870;4.722;2022-07-29T06:41:45;6.70;;;4.93;;
14554;SDS011;7364;50.870;4.722;2022-07-29T06:44:26;6.07;;;4.63;;
14554;SDS011;7364;50.870;4.722;2022-07-29T06:46:53;10.47;;;4.87;;
14554;SDS011;7364;50.870;4.722;2022-07-29T06:49:27;5.80;;;4.37;;
14554;SDS011;7364;50.870;4.722;2022-07-29T06:51:54;8.73;;;4.83;;
14554;SDS011;7364;50.870;4.722;2022-07-29T06:54:22;9.30;;;4.87;;
14554;SDS011;7364;50.870;4.722;2022-07-29T06:56:50;8.00;;;4.70;;
14554;SDS011;7364;50.870;4.722;2022-07-29T06:59:18;9.40;;;4.87;;
14554;SDS011;7364;50.870;4.722;2022-07-29T07:01:45;6.33;;;4.67;;
14554;SDS011;7364;50.870;4.722;2022-07-29T07:04:12;7.70;;;4.60;;
14554;SDS011;7364;50.870;4.722;2022-07-29T07:06:40;5.80;;;4.47;;
14554;SDS011;7364;50.870;4.722;2022-07-29T07:09:07;6.87;;;5.00;;
14554;SDS011;7364;50.870;4.722;2022-07-29T07:11:35;6.53;;;5.07;;
14554;SDS011;7364;50.870;4.722;2022-07-29T07:14:03;9.67;;;5.20;;
14554;SDS011;7364;50.870;4.722;2022-07-29T07:16:30;5.97;;;4.97;;
14554;SDS011;7364;50.870;4.722;2022-07-29T07:18:58;6.70;;;4.47;;
14554;SDS011;7364;50.870;4.722;2022-07-29T07:21:25;9.70;;;4.83;;
14554;SDS011;7364;50.870;4.722;2022-07-29T07:23:52;6.43;;;5.03;;
14554;SDS011;7364;50.870;4.722;2022-07-29T07:26:20;8.97;;;4.80;;
14554;SDS011;7364;50.870;4.722;2022-07-29T07:28:47;5.53;;;4.50;;
14554;SDS011;7364;50.870;4.722;2022-07-29T07:31:16;7.23;;;5.40;;
14554;SDS011;7364;50.870;4.722;2022-07-29T07:33:43;11.53;;;5.47;;
14554;SDS011;7364;50.870;4.722;2022-07-29T07:36:11;7.40;;;5.33;;
14554;SDS011;7364;50.870;4.722;2022-07-29T07:38:38;6.03;;;5.33;;
14554;SDS011;7364;50.870;4.722;2022-07-29T07:41:06;8.10;;;5.10;;
14554;SDS011;7364;50.870;4.722;2022-07-29T07:43:33;7.50;;;4.50;;
14554;SDS011;7364;50.870;4.722;2022-07-29T07:46:00;7.07;;;4.67;;
14554;SDS011;7364;50.870;4.722;2022-07-29T07:48:28;7.33;;;5.13;;
14554;SDS011;7364;50.870;4.722;2022-07-29T07:50:56;7.80;;;4.80;;
14554;SDS011;7364;50.870;4.722;2022-07-29T07:53:23;5.77;;;4.70;;
14554;SDS011;7364;50.870;4.722;2022-07-29T07:55:52;6.93;;;5.10;;
14554;SDS011;7364;50.870;4.722;2022-07-29T07:58:20;9.90;;;4.30;;
14554;SDS011;7364;50.870;4.722;2022-07-29T08:00:47;6.47;;;4.70;;
14554;SDS011;7364;50.870;4.722;2022-07-29T08:03:15;8.93;;;4.67;;
14554;SDS011;7364;50.870;4.722;2022-07-29T08:05:43;6.07;;;4.60;;
14554;SDS011;7364;50.870;4.722;2022-07-29T08:08:11;7.73;;;4.77;;
14554;SDS011;7364;50.870;4.722;2022-07-29T08:10:38;7.07;;;4.43;;
14554;SDS011;7364;50.870;4.722;2022-07-29T08:13:24;6.53;;;4.83;;
14554;SDS011;7364;50.870;4.722;2022-07-29T08:15:55;7.70;;;5.23;;
14554;SDS011;7364;50.870;4.722;2022-07-29T08:18:24;7.80;;;5.23;;
14554;SDS011;7364;50.870;4.722;2022-07-29T08:20:54;5.97;;;4.70;;
14554;SDS011;7364;50.870;4.722;2022-07-29T08:23:22;11.73;;;4.87;;
14554;SDS011;7364;50.870;4.722;2022-07-29T08:25:51;8.10;;;4.77;;
14554;SDS011;7364;50.870;4.722;2022-07-29T08:28:19;8.73;;;5.20;;
14554;SDS011;7364;50.870;4.722;2022-07-29T08:30:46;7.67;;;5.07;;
14554;SDS011;7364;50.870;4.722;2022-07-29T08:33:13;9.20;;;4.80;;
14554;SDS011;7364;50.870;4.722;2022-07-29T08:35:40;8.43;;;4.97;;
14554;SDS011;7364;50.870;4.722;2022-07-29T08:38:08;5.67;;;4.53;;
14554;SDS011;7364;50.870;4.722;2022-07-29T08:40:36;5.57;;;4.80;;
14554;SDS011;7364;50.870;4.722;2022-07-29T08:43:06;7.57;;;4.20;;
14554;SDS011;7364;50.870;4.722;2022-07-29T08:45:40;9.77;;;4.80;;
14554;SDS011;7364;50.870;4.722;2022-07-29T08:48:09;8.17;;;4.63;;
14554;SDS011;7364;50.870;4.722;2022-07-29T08:50:37;6.43;;;4.30;;
14554;SDS011;7364;50.870;4.722;2022-07-29T08:53:06;10.37;;;4.70;;
14554;SDS011;7364;50.870;4.722;2022-07-29T08:55:37;6.73;;;4.30;;
14554;SDS011;7364;50.870;4.722;2022-07-29T08:58:06;10.73;;;4.13;;
14554;SDS011;7364;50.870;4.722;2022-07-29T09:00:34;7.23;;;4.87;;
14554;SDS011;7364;50.870;4.722;2022-07-29T09:03:05;10.87;;;4.63;;
14554;SDS011;7364;50.870;4.722;2022-07-29T09:05:34;6.47;;;3.83;;
14554;SDS011;7364;50.870;4.722;2022-07-29T09:08:02;5.30;;;3.70;;
14554;SDS011;7364;50.870;4.722;2022-07-29T09:10:32;7.50;;;3.90;;
14554;SDS011;7364;50.870;4.722;2022-07-29T09:13:01;7.77;;;4.30;;
14554;SDS011;7364;50.870;4.722;2022-07-29T09:15:28;6.30;;;3.17;;
14554;SDS011;7364;50.870;4.722;2022-07-29T09:17:55;4.33;;;3.40;;
14554;SDS011;7364;50.870;4.722;2022-07-29T09:20:23;4.90;;;2.97;;
14554;SDS011;7364;50.870;4.722;2022-07-29T09:22:50;5.43;;;3.27;;
14554;SDS011;7364;50.870;4.722;2022-07-29T09:25:32;5.40;;;3.40;;
14554;SDS011;7364;50.870;4.722;2022-07-29T09:28:05;6.93;;;3.63;;
14554;SDS011;7364;50.870;4.722;2022-07-29T09:30:33;4.90;;;3.40;;
14554;SDS011;7364;50.870;4.722;2022-07-29T09:33:01;6.17;;;3.43;;
14554;SDS011;7364;50.870;4.722;2022-07-29T09:35:29;4.73;;;2.90;;
14554;SDS011;7364;50.870;4.722;2022-07-29T09:37:57;6.23;;;3.30;;
14554;SDS011;7364;50.870;4.722;2022-07-29T09:40:37;4.97;;;3.43;;
14554;SDS011;7364;50.870;4.722;2022-07-29T09:43:09;5.67;;;3.07;;
14554;SDS011;7364;50.870;4.722;2022-07-29T09:45:39;4.10;;;2.97;;
14554;SDS011;7364;50.870;4.722;2022-07-29T09:48:13;5.17;;;2.97;;
14554;SDS011;7364;50.870;4.722;2022-07-29T09:50:43;6.53;;;2.53;;
14554;SDS011;7364;50.870;4.722;2022-07-29T09:53:12;3.67;;;2.50;;
14554;SDS011;7364;50.870;4.722;2022-07-29T09:55:57;7.27;;;2.83;;
14554;SDS011;7364;50.870;4.722;2022-07-29T09:58:24;6.07;;;3.03;;
14554;SDS011;7364;50.870;4.722;2022-07-29T10:00:52;7.03;;;2.60;;
14554;SDS011;7364;50.870;4.722;2022-07-29T10:03:20;5.53;;;2.47;;
14554;SDS011;7364;50.870;4.722;2022-07-29T10:06:03;4.27;;;3.13;;
14554;SDS011;7364;50.870;4.722;2022-07-29T10:08:32;5.03;;;2.73;;
14554;SDS011;7364;50.870;4.722;2022-07-29T10:11:09;5.33;;;2.80;;
14554;SDS011;7364;50.870;4.722;2022-07-29T10:13:37;6.07;;;2.97;;
14554;SDS011;7364;50.870;4.722;2022-07-29T10:16:05;4.33;;;2.60;;
14554;SDS011;7364;50.870;4.722;2022-07-29T10:18:34;3.80;;;2.10;;
14554;SDS011;7364;50.870;4.722;2022-07-29T10:21:03;7.30;;;2.87;;
14554;SDS011;7364;50.870;4.722;2022-07-29T10:23:31;6.40;;;2.63;;
14554;SDS011;7364;50.870;4.722;2022-07-29T10:26:00;3.03;;;2.20;;
14554;SDS011;7364;50.870;4.722;2022-07-29T10:28:31;3.07;;;2.20;;
14554;SDS011;7364;50.870;4.722;2022-07-29T10:30:59;6.03;;;2.30;;
14554;SDS011;7364;50.870;4.722;2022-07-29T10:33:36;3.17;;;1.97;;
14554;SDS011;7364;50.870;4.722;2022-07-29T10:36:23;4.77;;;2.10;;
14554;SDS011;7364;50.870;4.722;2022-07-29T10:39:05;4.57;;;2.37;;
14554;SDS011;7364;50.870;4.722;2022-07-29T10:41:50;3.97;;;2.00;;
14554;SDS011;7364;50.870;4.722;2022-07-29T10:44:30;4.47;;;2.20;;
14554;SDS011;7364;50.870;4.722;2022-07-29T10:46:58;3.43;;;2.20;;
14554;SDS011;7364;50.870;4.722;2022-07-29T10:49:26;4.70;;;2.47;;
14554;SDS011;7364;50.870;4.722;2022-07-29T10:51:57;6.07;;;2.17;;
14554;SDS011;7364;50.870;4.722;2022-07-29T10:54:37;6.73;;;2.40;;
14554;SDS011;7364;50.870;4.722;2022-07-29T10:57:14;4.67;;;2.17;;
14554;SDS011;7364;50.870;4.722;2022-07-29T11:02:54;4.30;;;2.67;;
14554;SDS011;7364;50.870;4.722;2022-07-29T11:05:23;4.10;;;2.40;;
14554;SDS011;7364;50.870;4.722;2022-07-29T11:10:46;6.10;;;2.40;;
14554;SDS011;7364;50.870;4.722;2022-07-29T11:16:20;3.57;;;2.63;;
14554;SDS011;7364;50.870;4.722;2022-07-29T11:21:48;4.60;;;2.37;;
14554;SDS011;7364;50.870;4.722;2022-07-29T11:24:17;4.07;;;2.37;;
14554;SDS011;7364;50.870;4.722;2022-07-29T11:29:39;5.67;;;2.57;;
14554;SDS011;7364;50.870;4.722;2022-07-29T11:32:16;4.73;;;2.47;;
14554;SDS011;7364;50.870;4.722;2022-07-29T11:34:46;5.87;;;2.60;;
14554;SDS011;7364;50.870;4.722;2022-07-29T11:37:21;3.80;;;2.17;;
14554;SDS011;7364;50.870;4.722;2022-07-29T11:42:45;6.97;;;2.55;;
14554;SDS011;7364;50.870;4.722;2022-07-29T11:45:14;4.38;;;1.92;;
14554;SDS011;7364;50.870;4.722;2022-07-29T11:47:47;6.55;;;2.25;;
14554;SDS011;7364;50.870;4.722;2022-07-29T11:50:26;5.73;;;2.73;;
14554;SDS011;7364;50.870;4.722;2022-07-29T11:52:56;6.57;;;2.70;;
14554;SDS011;7364;50.870;4.722;2022-07-29T11:55:24;4.50;;;2.50;;
14554;SDS011;7364;50.870;4.722;2022-07-29T11:57:52;6.33;;;2.37;;
14554;SDS011;7364;50.870;4.722;2022-07-29T12:00:21;3.97;;;2.67;;
14554;SDS011;7364;50.870;4.722;2022-07-29T12:02:50;6.43;;;2.60;;
14554;SDS011;7364;50.870;4.722;2022-07-29T12:05:19;5.10;;;2.50;;
14554;SDS011;7364;50.870;4.722;2022-07-29T12:07:47;3.93;;;2.53;;
14554;SDS011;7364;50.870;4.722;2022-07-29T12:10:14;4.50;;;2.27;;
14554;SDS011;7364;50.870;4.722;2022-07-29T12:12:42;3.50;;;2.67;;
14554;SDS011;7364;50.870;4.722;2022-07-29T12:15:18;4.80;;;2.30;;
14554;SDS011;7364;50.870;4.722;2022-07-29T12:17:46;4.97;;;2.70;;
14554;SDS011;7364;50.870;4.722;2022-07-29T12:20:14;6.43;;;2.75;;
14554;SDS011;7364;50.870;4.722;2022-07-29T12:22:51;4.20;;;2.60;;
14554;SDS011;7364;50.870;4.722;2022-07-29T12:25:20;3.67;;;2.33;;
14554;SDS011;7364;50.870;4.722;2022-07-29T12:27:57;5.25;;;2.85;;
14554;SDS011;7364;50.870;4.722;2022-07-29T12:33:16;8.60;;;2.42;;
14554;SDS011;7364;50.870;4.722;2022-07-29T12:35:49;8.57;;;2.25;;
14554;SDS011;7364;50.870;4.722;2022-07-29T12:38:18;6.05;;;2.20;;
14554;SDS011;7364;50.870;4.722;2022-07-29T12:40:47;5.47;;;2.20;;
14554;SDS011;7364;50.870;4.722;2022-07-29T12:43:16;3.92;;;2.40;;
14554;SDS011;7364;50.870;4.722;2022-07-29T12:45:47;3.17;;;1.98;;
14554;SDS011;7364;50.870;4.722;2022-07-29T12:48:16;5.40;;;2.70;;
14554;SDS011;7364;50.870;4.722;2022-07-29T12:53:33;5.03;;;2.35;;
14554;SDS011;7364;50.870;4.722;2022-07-29T12:56:00;6.75;;;2.58;;
14554;SDS011;7364;50.870;4.722;2022-07-29T12:58:29;4.28;;;2.35;;
14554;SDS011;7364;50.870;4.722;2022-07-29T13:01:05;4.60;;;2.35;;
14554;SDS011;7364;50.870;4.722;2022-07-29T13:03:43;3.90;;;2.35;;
14554;SDS011;7364;50.870;4.722;2022-07-29T13:09:12;3.90;;;2.30;;
14554;SDS011;7364;50.870;4.722;2022-07-29T13:11:41;4.13;;;2.65;;
14554;SDS011;7364;50.870;4.722;2022-07-29T13:14:10;3.50;;;2.13;;
14554;SDS011;7364;50.870;4.722;2022-07-29T13:16:59;5.07;;;2.30;;
14554;SDS011;7364;50.870;4.722;2022-07-29T13:19:35;3.83;;;1.90;;
14554;SDS011;7364;50.870;4.722;2022-07-29T13:22:06;4.05;;;2.20;;
14554;SDS011;7364;50.870;4.722;2022-07-29T13:24:44;5.05;;;2.63;;
14554;SDS011;7364;50.870;4.722;2022-07-29T13:27:16;3.60;;;2.28;;
14554;SDS011;7364;50.870;4.722;2022-07-29T13:29:44;5.20;;;2.30;;
14554;SDS011;7364;50.870;4.722;2022-07-29T13:32:11;3.90;;;2.05;;
14554;SDS011;7364;50.870;4.722;2022-07-29T13:34:39;2.30;;;2.00;;
14554;SDS011;7364;50.870;4.722;2022-07-29T13:37:10;5.55;;;2.30;;
14554;SDS011;7364;50.870;4.722;2022-07-29T13:39:42;5.57;;;2.50;;
14554;SDS011;7364;50.870;4.722;2022-07-29T13:42:11;3.92;;;2.30;;
14554;SDS011;7364;50.870;4.722;2022-07-29T13:44:39;4.47;;;2.47;;
14554;SDS011;7364;50.870;4.722;2022-07-29T13:47:14;3.88;;;2.80;;
14554;SDS011;7364;50.870;4.722;2022-07-29T13:49:46;5.10;;;2.40;;
14554;SDS011;7364;50.870;4.722;2022-07-29T13:52:15;6.63;;;2.80;;
14554;SDS011;7364;50.870;4.722;2022-07-29T13:54:42;4.80;;;2.15;;
14554;SDS011;7364;50.870;4.722;2022-07-29T13:57:10;5.63;;;2.70;;
14554;SDS011;7364;50.870;4.722;2022-07-29T13:59:39;7.05;;;2.50;;
14554;SDS011;7364;50.870;4.722;2022-07-29T14:02:07;3.83;;;2.13;;
14554;SDS011;7364;50.870;4.722;2022-07-29T14:04:35;7.35;;;2.70;;
14554;SDS011;7364;50.870;4.722;2022-07-29T14:07:03;6.22;;;2.83;;
14554;SDS011;7364;50.870;4.722;2022-07-29T14:09:34;6.25;;;2.55;;
14554;SDS011;7364;50.870;4.722;2022-07-29T14:12:01;4.32;;;2.72;;
14554;SDS011;7364;50.870;4.722;2022-07-29T14:14:28;6.70;;;2.58;;
14554;SDS011;7364;50.870;4.722;2022-07-29T14:16:57;7.32;;;3.08;;
14554;SDS011;7364;50.870;4.722;2022-07-29T14:19:24;4.72;;;2.88;;
14554;SDS011;7364;50.870;4.722;2022-07-29T14:21:52;4.38;;;2.85;;
14554;SDS011;7364;50.870;4.722;2022-07-29T14:24:19;4.97;;;3.08;;
14554;SDS011;7364;50.870;4.722;2022-07-29T14:26:47;6.05;;;2.75;;
14554;SDS011;7364;50.870;4.722;2022-07-29T14:29:15;9.80;;;3.53;;
14554;SDS011;7364;50.870;4.722;2022-07-29T14:31:42;7.80;;;4.10;;
14554;SDS011;7364;50.870;4.722;2022-07-29T14:34:09;5.50;;;3.87;;
14554;SDS011;7364;50.870;4.722;2022-07-29T14:36:37;6.27;;;4.47;;
14554;SDS011;7364;50.870;4.722;2022-07-29T14:39:06;7.17;;;4.33;;
14554;SDS011;7364;50.870;4.722;2022-07-29T14:41:33;9.67;;;4.73;;
14554;SDS011;7364;50.870;4.722;2022-07-29T14:44:02;8.83;;;4.97;;
14554;SDS011;7364;50.870;4.722;2022-07-29T14:46:29;7.97;;;4.20;;
14554;SDS011;7364;50.870;4.722;2022-07-29T14:48:57;6.77;;;4.20;;
14554;SDS011;7364;50.870;4.722;2022-07-29T14:51:24;11.90;;;4.77;;
14554;SDS011;7364;50.870;4.722;2022-07-29T14:53:51;8.70;;;4.87;;
14554;SDS011;7364;50.870;4.722;2022-07-29T14:56:18;7.13;;;4.40;;
14554;SDS011;7364;50.870;4.722;2022-07-29T14:58:45;8.10;;;4.47;;
14554;SDS011;7364;50.870;4.722;2022-07-29T15:01:14;9.40;;;3.83;;
14554;SDS011;7364;50.870;4.722;2022-07-29T15:03:41;4.53;;;3.83;;
14554;SDS011;7364;50.870;4.722;2022-07-29T15:06:08;7.47;;;4.60;;
14554;SDS011;7364;50.870;4.722;2022-07-29T15:08:35;7.40;;;3.97;;
14554;SDS011;7364;50.870;4.722;2022-07-29T15:11:03;5.67;;;3.60;;
14554;SDS011;7364;50.870;4.722;2022-07-29T15:13:30;5.80;;;3.47;;
14554;SDS011;7364;50.870;4.722;2022-07-29T15:15:57;7.77;;;3.50;;
14554;SDS011;7364;50.870;4.722;2022-07-29T15:18:26;8.13;;;4.47;;
14554;SDS011;7364;50.870;4.722;2022-07-29T15:20:53;5.33;;;3.30;;
14554;SDS011;7364;50.870;4.722;2022-07-29T15:23:20;5.43;;;3.22;;
14554;SDS011;7364;50.870;4.722;2022-07-29T15:25:47;7.05;;;3.92;;
14554;SDS011;7364;50.870;4.722;2022-07-29T15:28:14;4.93;;;3.58;;
14554;SDS011;7364;50.870;4.722;2022-07-29T15:30:42;6.00;;;3.55;;
14554;SDS011;7364;50.870;4.722;2022-07-29T15:33:09;7.75;;;3.08;;
14554;SDS011;7364;50.870;4.722;2022-07-29T15:35:38;5.65;;;3.30;;
14554;SDS011;7364;50.870;4.722;2022-07-29T15:38:05;5.72;;;2.92;;
14554;SDS011;7364;50.870;4.722;2022-07-29T15:40:32;4.20;;;2.55;;
14554;SDS011;7364;50.870;4.722;2022-07-29T15:43:00;6.77;;;2.47;;
14554;SDS011;7364;50.870;4.722;2022-07-29T15:45:35;5.40;;;3.30;;